Time;durP1;ratioP1;P1;durP2;ratioP2;P2;SDS_P1;SDS_P2;PMS_P1;PMS_P2;Temp;Humidity;BMP_temperature;BMP_pressure;BME280_temperature;BME280_humidity;BME280_pressure;Samples;Min_cycle;Max_cycle;Signal;HPM_P1;HPM_P2
2021/12/12 00:02:19;;;;;;;;;17.25;15.00;;;;;-147.17;100.00;50359.75;4976077;28;51362;-70
2021/12/12 00:04:47;;;;;;;;;22.50;21.00;;;;;-147.17;100.00;50371.56;4977955;28;51996;-70
2021/12/12 00:07:20;;;;;;;;;29.00;26.75;;;;;-147.17;100.00;50355.81;4978234;28;51327;-71
2021/12/12 00:09:49;;;;;;;;;16.00;14.25;;;;;-147.17;100.00;50387.31;4979367;28;51979;-71
2021/12/12 00:12:25;;;;;;;;;19.00;17.25;;;;;-147.17;100.00;50369.59;4977228;28;51601;-69
2021/12/12 00:14:51;;;;;;;;;18.50;17.50;;;;;-147.17;100.00;50355.81;4974201;28;51904;-69
2021/12/12 00:17:18;;;;;;;;;23.00;21.00;;;;;-147.17;100.00;50330.22;4956444;28;51108;-68
2021/12/12 00:19:44;;;;;;;;;21.75;21.50;;;;;-147.17;100.00;50336.13;4972547;28;51212;-68
2021/12/12 00:22:13;;;;;;;;;19.75;18.25;;;;;-147.17;100.00;50359.75;4971172;28;51144;-69
2021/12/12 00:24:40;;;;;;;;;24.50;21.25;;;;;-147.17;100.00;50316.44;4968957;28;51289;-68
2021/12/12 00:27:06;;;;;;;;;20.25;19.50;;;;;-147.17;100.00;50326.28;4982704;28;51145;-68
2021/12/12 00:29:32;;;;;;;;;17.25;16.00;;;;;-147.17;100.00;50316.44;4973711;28;51316;-69
2021/12/12 00:32:01;;;;;;;;;18.75;17.75;;;;;-147.17;100.00;50328.25;4966851;28;51403;-69
2021/12/12 00:34:30;;;;;;;;;21.00;19.25;;;;;-147.17;100.00;50320.38;4972935;28;52055;-70
2021/12/12 00:36:56;;;;;;;;;20.50;18.50;;;;;-147.17;100.00;50336.13;4969129;28;51110;-70
2021/12/12 00:39:26;;;;;;;;;17.00;15.25;;;;;-147.17;100.00;50308.59;4973838;28;51019;-71
2021/12/12 00:41:56;;;;;;;;;17.50;17.25;;;;;-147.17;100.00;50324.31;4974639;28;51997;-72
2021/12/12 00:44:22;;;;;;;;;15.50;14.50;;;;;-147.17;100.00;50292.84;4980045;28;51886;-71
2021/12/12 00:46:47;;;;;;;;;17.75;16.00;;;;;-147.17;100.00;50298.75;4972385;28;51065;-71
2021/12/12 00:49:14;;;;;;;;;18.00;16.25;;;;;-147.17;100.00;50308.59;4980745;28;50943;-70
2021/12/12 00:51:43;;;;;;;;;16.25;16.00;;;;;-147.17;100.00;50328.25;4969798;28;51169;-71
2021/12/12 00:54:10;;;;;;;;;21.00;19.75;;;;;-147.17;100.00;50294.81;4977997;28;52365;-71
2021/12/12 00:56:35;;;;;;;;;17.00;15.25;;;;;-147.17;100.00;50296.78;4980060;28;51195;-71
2021/12/12 00:59:03;;;;;;;;;22.00;19.50;;;;;-147.17;100.00;50316.44;4978971;28;51127;-71
2021/12/12 01:01:46;;;;;;;;;18.25;17.75;;;;;-147.17;100.00;50304.66;4979785;28;50904;-70
2021/12/12 01:04:18;;;;;;;;;19.50;16.50;;;;;-147.17;100.00;50312.53;4976654;28;51952;-71
2021/12/12 01:06:45;;;;;;;;;22.50;19.50;;;;;-147.17;100.00;50283.00;4978609;28;51191;-71
2021/12/12 01:09:16;;;;;;;;;15.25;14.50;;;;;-147.17;100.00;50281.03;4980053;28;51058;-70
2021/12/12 01:11:46;;;;;;;;;15.50;14.25;;;;;-147.17;100.00;50273.16;4976295;28;51107;-68
2021/12/12 01:14:15;;;;;;;;;14.50;13.75;;;;;-147.17;100.00;50290.88;4977628;28;52174;-68
2021/12/12 01:16:48;;;;;;;;;17.00;16.50;;;;;-147.17;100.00;50284.97;4973657;28;51315;-69
2021/12/12 01:19:26;;;;;;;;;14.25;13.75;;;;;-147.17;100.00;50298.75;4976978;28;51149;-70
2021/12/12 01:21:57;;;;;;;;;14.00;13.00;;;;;-147.17;100.00;50273.16;4979911;28;50979;-71
2021/12/12 01:24:33;;;;;;;;;20.50;19.00;;;;;-147.17;100.00;50273.16;4971885;28;51142;-72
2021/12/12 01:27:04;;;;;;;;;17.75;16.25;;;;;-147.17;100.00;50290.88;4977660;28;50929;-71
2021/12/12 01:29:29;;;;;;;;;14.50;14.00;;;;;-147.17;100.00;50284.97;4979025;28;51125;-70
2021/12/12 01:31:59;;;;;;;;;11.75;11.75;;;;;-147.17;100.00;50292.84;4975661;28;51126;-70
2021/12/12 01:34:28;;;;;;;;;12.25;12.25;;;;;-147.17;100.00;50296.78;4974402;28;53021;-72
2021/12/12 01:39:53;;;;;;;;;12.50;12.50;;;;;-147.17;100.00;50273.16;4971475;28;51007;-69
2021/12/12 01:42:45;;;;;;;;;13.00;13.00;;;;;-147.17;100.00;50271.19;4976162;28;51416;-69
2021/12/12 01:45:24;;;;;;;;;14.00;12.50;;;;;-147.17;100.00;50277.09;4972749;28;52150;-70
2021/12/12 01:48:04;;;;;;;;;12.50;12.00;;;;;-147.17;100.00;50275.13;4973430;28;51129;-70
2021/12/12 01:50:39;;;;;;;;;13.00;13.00;;;;;-147.17;100.00;50277.09;4977932;28;51102;-72
2021/12/12 01:53:08;;;;;;;;;11.00;9.75;;;;;-147.17;100.00;50277.09;4976466;28;51333;-73
2021/12/12 01:55:38;;;;;;;;;13.00;10.75;;;;;-147.17;100.00;50257.41;4980639;28;52347;-71
2021/12/12 01:58:09;;;;;;;;;13.00;11.50;;;;;-147.17;100.00;50277.09;4979287;28;51099;-72
2021/12/12 02:00:42;;;;;;;;;13.50;13.25;;;;;-147.17;100.00;50273.16;4968809;28;51173;-70
2021/12/12 02:03:11;;;;;;;;;14.50;13.75;;;;;-147.17;100.00;50294.81;4973521;28;51253;-72
2021/12/12 02:05:37;;;;;;;;;10.25;10.25;;;;;-147.17;100.00;50182.59;4973617;28;51212;-72
2021/12/12 02:08:07;;;;;;;;;13.75;13.75;;;;;-147.17;100.00;50090.09;4976801;28;51093;-69
2021/12/12 02:10:43;;;;;;;;;12.75;12.00;;;;;-147.17;100.00;50229.84;4966339;28;50949;-69
2021/12/12 02:13:12;;;;;;;;;11.75;9.50;;;;;-147.17;100.00;50237.72;4977239;28;51026;-69
2021/12/12 02:15:39;;;;;;;;;9.00;9.00;;;;;-147.17;100.00;50229.84;4977450;28;51037;-70
2021/12/12 02:18:09;;;;;;;;;7.50;7.50;;;;;-147.17;100.00;50245.59;4978969;28;51011;-72
2021/12/12 02:20:42;;;;;;;;;9.00;9.00;;;;;-147.17;100.00;50221.97;4978385;28;51108;-71
2021/12/12 02:36:49;;;;;;;;;10.25;10.25;;;;;-147.17;100.00;50245.59;4972513;28;51433;-68
2021/12/12 02:39:18;;;;;;;;;9.25;9.00;;;;;-147.17;100.00;50229.84;4967056;28;51012;-69
2021/12/12 02:41:54;;;;;;;;;10.00;9.00;;;;;-147.17;100.00;50243.63;4970846;28;52639;-69
2021/12/12 02:44:26;;;;;;;;;11.00;11.00;;;;;-147.17;100.00;50229.84;4976588;28;51409;-69
2021/12/12 02:46:54;;;;;;;;;11.25;11.25;;;;;-147.17;100.00;50245.59;4973425;28;51973;-69
2021/12/12 02:49:36;;;;;;;;;10.00;9.00;;;;;-147.17;100.00;50235.75;4960182;28;51012;-70
2021/12/12 02:52:04;;;;;;;;;11.50;10.75;;;;;-147.17;100.00;50237.72;4972071;28;51267;-71
2021/12/12 02:54:30;;;;;;;;;9.50;9.25;;;;;-147.17;100.00;50212.13;4984178;28;51174;-73
2021/12/12 02:56:55;;;;;;;;;8.75;8.75;;;;;-147.17;100.00;50249.53;4983615;28;51043;-71
2021/12/12 02:59:23;;;;;;;;;8.25;8.25;;;;;-147.17;100.00;50212.13;4976759;28;52814;-70
2021/12/12 03:01:57;;;;;;;;;9.75;9.75;;;;;-147.17;100.00;50221.97;4984141;28;51248;-70
2021/12/12 03:04:24;;;;;;;;;9.00;8.33;;;;;-147.17;100.00;50247.56;4981953;28;52892;-69
2021/12/12 03:06:50;;;;;;;;;9.00;9.00;;;;;-147.17;100.00;50202.28;4982342;28;53838;-70
2021/12/12 03:09:22;;;;;;;;;9.00;8.67;;;;;-147.17;100.00;50216.06;4985780;28;50967;-70
2021/12/12 03:11:52;;;;;;;;;7.33;7.33;;;;;-147.17;100.00;50225.91;4978898;28;51035;-70
2021/12/12 03:14:18;;;;;;;;;9.25;8.75;;;;;-147.17;100.00;50178.66;4970159;28;51335;-69
2021/12/12 03:16:44;;;;;;;;;11.25;9.00;;;;;-147.17;100.00;50184.56;4972133;28;51164;-70
2021/12/12 03:19:10;;;;;;;;;8.33;7.33;;;;;-147.17;100.00;50210.16;4979146;28;50976;-70
2021/12/12 03:21:42;;;;;;;;;7.75;7.00;;;;;-147.17;100.00;50216.06;4978457;28;51211;-70
2021/12/12 03:24:19;;;;;;;;;12.50;11.25;;;;;-147.17;100.00;50210.16;4974636;28;50936;-70
2021/12/12 03:26:46;;;;;;;;;8.25;8.25;;;;;-147.17;100.00;50210.16;4965455;28;51362;-70
2021/12/12 03:29:12;;;;;;;;;6.50;4.50;;;;;-147.17;100.00;50208.19;4982945;28;51043;-71
2021/12/12 03:31:46;;;;;;;;;8.00;8.00;;;;;-147.17;100.00;50233.78;4981267;28;50999;-68
2021/12/12 03:34:15;;;;;;;;;9.00;9.00;;;;;-147.17;100.00;50216.06;4980471;28;51176;-74
2021/12/12 03:36:42;;;;;;;;;11.00;8.33;;;;;-147.17;100.00;50233.78;4980828;28;52099;-70
2021/12/12 03:39:14;;;;;;;;;8.25;8.25;;;;;-147.17;100.00;50192.44;4971925;28;51039;-70
2021/12/12 03:41:41;;;;;;;;;8.50;8.50;;;;;-147.17;100.00;50218.03;4982718;28;51164;-70
2021/12/12 03:44:16;;;;;;;;;9.00;8.00;;;;;-147.17;100.00;50214.09;4983453;28;51379;-70
2021/12/12 03:46:43;;;;;;;;;8.33;8.33;;;;;-147.17;100.00;50200.31;4981900;28;52165;-70
2021/12/12 03:49:09;;;;;;;;;8.33;7.67;;;;;-147.17;100.00;50186.53;4981391;28;51073;-70
2021/12/12 03:51:36;;;;;;;;;8.00;8.00;;;;;-147.17;100.00;50198.34;4978754;28;51221;-70
2021/12/12 03:54:02;;;;;;;;;8.00;7.00;;;;;-147.17;100.00;50186.53;4974538;28;51462;-69
2021/12/12 03:56:29;;;;;;;;;14.75;14.50;;;;;-147.17;100.00;50241.66;4976294;28;51827;-73
2021/12/12 03:58:55;;;;;;;;;7.67;7.33;;;;;-147.17;100.00;50214.09;4976459;28;51201;-68
2021/12/12 04:01:26;;;;;;;;;7.00;7.00;;;;;-147.17;100.00;50198.34;4982382;28;51075;-67
2021/12/12 04:03:55;;;;;;;;;8.67;7.00;;;;;-147.17;100.00;50249.53;4977480;28;51132;-69
2021/12/12 04:06:25;;;;;;;;;8.00;7.00;;;;;-147.17;100.00;50221.97;4969584;28;52350;-70
2021/12/12 04:08:53;;;;;;;;;6.33;5.00;;;;;-147.17;100.00;50223.94;4976025;28;51657;-70
2021/12/12 04:11:36;;;;;;;;;7.33;7.00;;;;;-147.17;100.00;50206.22;4972774;28;51240;-69
2021/12/12 04:14:03;;;;;;;;;8.00;8.00;;;;;-147.17;100.00;50225.91;4978860;28;51086;-69
2021/12/12 04:16:31;;;;;;;;;8.00;7.00;;;;;-147.17;100.00;50182.59;4977600;28;51772;-68
2021/12/12 04:18:57;;;;;;;;;7.33;7.33;;;;;-147.17;100.00;50218.03;4969979;28;50334;-68
2021/12/12 04:21:25;;;;;;;;;7.67;7.00;;;;;-147.17;100.00;50216.06;4966474;28;50978;-69
2021/12/12 04:23:51;;;;;;;;;8.33;7.67;;;;;-147.17;100.00;50188.50;4972812;28;51152;-70
2021/12/12 04:26:30;;;;;;;;;10.67;9.00;;;;;-147.17;100.00;50237.72;4979006;28;51882;-68
2021/12/12 04:29:01;;;;;;;;;8.00;8.00;;;;;-147.17;100.00;50208.19;4976607;28;50972;-68
2021/12/12 04:31:27;;;;;;;;;10.75;9.75;;;;;-147.17;100.00;50198.34;4977405;28;51084;-67
2021/12/12 04:33:54;;;;;;;;;6.33;6.33;;;;;-147.17;100.00;50214.09;4975265;28;50956;-68
2021/12/12 04:36:32;;;;;;;;;9.33;9.33;;;;;-147.17;100.00;50184.56;4967788;28;51098;-65
2021/12/12 04:39:01;;;;;;;;;8.00;8.00;;;;;-147.17;100.00;50202.28;4976773;28;51273;-67
2021/12/12 04:41:26;;;;;;;;;10.00;10.00;;;;;-147.17;100.00;50218.03;4975640;28;51159;-65
2021/12/12 04:43:52;;;;;;;;;10.33;9.33;;;;;-147.17;100.00;50186.53;4967020;28;51249;-65
2021/12/12 04:46:25;;;;;;;;;11.00;11.00;;;;;-147.17;100.00;50198.34;4974094;28;51984;-65
2021/12/12 04:51:46;;;;;;;;;10.75;9.50;;;;;-147.17;100.00;50188.50;4971313;28;51270;-68
2021/12/12 04:54:24;;;;;;;;;11.00;11.00;;;;;-147.17;100.00;50194.41;4974587;28;51293;-67
2021/12/12 04:57:00;;;;;;;;;13.75;12.50;;;;;-147.17;100.00;50196.38;4976706;28;52086;-67
2021/12/12 04:59:32;;;;;;;;;11.33;10.67;;;;;-147.17;100.00;50225.91;4975037;28;51206;-70
2021/12/12 05:02:12;;;;;;;;;10.50;9.75;;;;;-147.17;100.00;50206.22;4978056;28;51682;-67
2021/12/12 05:04:49;;;;;;;;;12.75;11.00;;;;;-147.17;100.00;50196.38;4974388;28;51248;-67
2021/12/12 05:07:30;;;;;;;;;11.00;9.50;;;;;-147.17;100.00;50202.28;4969384;28;51126;-66
2021/12/12 05:10:05;;;;;;;;;11.25;11.25;;;;;-147.17;100.00;50172.75;4974677;28;51210;-66
2021/12/12 05:12:35;;;;;;;;;11.25;11.00;;;;;-147.17;100.00;50174.72;4971053;28;51247;-68
2021/12/12 05:15:07;;;;;;;;;10.33;9.00;;;;;-147.17;100.00;50170.78;4973873;28;51221;-67
2021/12/12 05:17:44;;;;;;;;;12.50;11.75;;;;;-147.17;100.00;50178.66;4971372;28;53776;-68
2021/12/12 05:20:16;;;;;;;;;14.00;11.67;;;;;-147.17;100.00;50141.25;4972486;28;51000;-68
2021/12/12 05:22:48;;;;;;;;;11.00;10.25;;;;;-147.17;100.00;50188.50;4967456;28;51000;-67
2021/12/12 05:25:23;;;;;;;;;13.67;11.67;;;;;-147.17;100.00;50174.72;4979073;28;51324;-69
2021/12/12 05:27:53;;;;;;;;;14.75;14.50;;;;;-147.17;100.00;50170.78;4968345;28;51050;-70
2021/12/12 05:30:26;;;;;;;;;14.00;12.25;;;;;-147.17;100.00;50166.84;4978152;28;51174;-68
2021/12/12 05:32:53;;;;;;;;;11.50;10.75;;;;;-147.17;100.00;50155.03;4978291;28;51049;-70
2021/12/12 05:35:23;;;;;;;;;9.75;9.75;;;;;-147.17;100.00;50170.78;4973159;28;50995;-70
2021/12/12 05:37:51;;;;;;;;;14.75;14.00;;;;;-147.17;100.00;50168.81;4976477;28;52123;-68
2021/12/12 05:40:20;;;;;;;;;11.33;11.33;;;;;-147.17;100.00;50123.53;4977757;28;51168;-67
2021/12/12 05:42:46;;;;;;;;;13.25;11.25;;;;;-147.17;100.00;50172.75;4977524;28;50990;-67
2021/12/12 05:45:13;;;;;;;;;15.25;14.00;;;;;-147.17;100.00;50155.03;4979857;28;51349;-68
2021/12/12 05:47:39;;;;;;;;;14.75;14.00;;;;;-147.17;100.00;50166.84;4977770;28;52985;-68
2021/12/12 05:50:07;;;;;;;;;13.00;13.00;;;;;-147.17;100.00;50147.16;4968753;28;51218;-68
2021/12/12 05:52:33;;;;;;;;;15.00;12.50;;;;;-147.17;100.00;50170.78;4976214;28;51068;-67
2021/12/12 05:54:59;;;;;;;;;15.00;13.25;;;;;-147.17;100.00;50178.66;4978235;28;51022;-70
2021/12/12 05:57:27;;;;;;;;;16.25;15.50;;;;;-147.17;100.00;50186.53;4973971;28;52197;-70
2021/12/12 05:59:57;;;;;;;;;15.00;14.50;;;;;-147.17;100.00;50170.78;4975002;28;50907;-73
2021/12/12 06:02:25;;;;;;;;;16.75;15.75;;;;;-147.17;100.00;50166.84;4975343;28;51196;-70
2021/12/12 06:04:55;;;;;;;;;16.33;16.00;;;;;-147.17;100.00;50182.59;4974810;28;51452;-69
2021/12/12 06:07:22;;;;;;;;;16.25;15.50;;;;;-147.17;100.00;50182.59;4976653;28;53033;-70
2021/12/12 06:09:49;;;;;;;;;18.00;17.50;;;;;-147.17;100.00;50198.34;4976032;28;51347;-69
2021/12/12 06:12:16;;;;;;;;;15.50;14.75;;;;;-147.17;100.00;50174.72;4984890;28;51038;-69
2021/12/12 06:14:43;;;;;;;;;14.50;13.25;;;;;-147.17;100.00;50153.06;4959083;28;51422;-70
2021/12/12 06:17:11;;;;;;;;;15.50;11.75;;;;;-147.17;100.00;50190.47;4973398;28;52970;-69
2021/12/12 06:19:38;;;;;;;;;17.50;16.00;;;;;-147.17;100.00;50178.66;4972010;28;51077;-68
2021/12/12 06:22:05;;;;;;;;;14.25;12.25;;;;;-147.17;100.00;50184.56;4967590;28;51472;-69
2021/12/12 06:24:33;;;;;;;;;14.00;11.75;;;;;-147.17;100.00;50174.72;4967200;28;51149;-68
2021/12/12 06:27:05;;;;;;;;;11.00;10.25;;;;;-147.17;100.00;50182.59;4972573;28;51703;-69
2021/12/12 06:29:31;;;;;;;;;12.00;11.33;;;;;-147.17;100.00;50162.91;4951598;28;51120;-67
2021/12/12 06:31:57;;;;;;;;;16.50;14.75;;;;;-147.17;100.00;50186.53;4956340;28;51167;-67
2021/12/12 06:34:23;;;;;;;;;15.00;14.00;;;;;-147.17;100.00;50162.91;4967360;28;51480;-68
2021/12/12 06:36:50;;;;;;;;;15.00;13.25;;;;;-147.17;100.00;50162.91;4970370;28;51162;-68
2021/12/12 06:39:17;;;;;;;;;11.25;11.25;;;;;-147.17;100.00;50186.53;4963273;28;51151;-69
2021/12/12 06:41:43;;;;;;;;;15.00;12.00;;;;;-147.17;100.00;50192.44;4975344;28;51163;-68
2021/12/12 06:44:10;;;;;;;;;12.75;12.00;;;;;-147.17;100.00;50147.16;4957947;28;51295;-68
2021/12/12 06:46:38;;;;;;;;;10.00;10.00;;;;;-147.17;100.00;50192.44;4969485;28;51075;-69
2021/12/12 06:49:06;;;;;;;;;11.33;11.00;;;;;-147.17;100.00;50168.81;4967658;28;51122;-68
2021/12/12 06:51:41;;;;;;;;;11.67;10.00;;;;;-147.17;100.00;50186.53;4962219;28;51143;-68
2021/12/12 06:54:08;;;;;;;;;10.33;10.00;;;;;-147.17;100.00;50162.91;4962150;28;51177;-68
2021/12/12 06:56:34;;;;;;;;;10.00;10.00;;;;;-147.17;100.00;50182.59;4969889;28;52857;-69
2021/12/12 06:59:01;;;;;;;;;6.67;5.00;;;;;-147.17;100.00;50164.88;4960455;28;50976;-68
2021/12/12 07:01:29;;;;;;;;;6.33;6.33;;;;;-147.17;100.00;50202.28;4960135;28;51380;-69
2021/12/12 07:03:55;;;;;;;;;10.00;9.33;;;;;-147.17;100.00;50184.56;4973309;28;51202;-68
2021/12/12 07:06:24;;;;;;;;;13.33;10.67;;;;;-147.17;100.00;50210.16;4970044;28;51788;-68
2021/12/12 07:08:51;;;;;;;;;9.00;9.00;;;;;-147.17;100.00;50194.41;4970960;28;51149;-68
2021/12/12 07:11:22;;;;;;;;;11.67;11.67;;;;;-147.17;100.00;50198.34;4961952;28;51106;-67
2021/12/12 07:13:50;;;;;;;;;12.33;11.00;;;;;-147.17;100.00;50182.59;4965652;28;51396;-67
2021/12/12 07:16:17;;;;;;;;;10.33;9.67;;;;;-147.17;100.00;50151.09;4967828;28;51258;-68
2021/12/12 07:18:44;;;;;;;;;7.00;7.00;;;;;-147.17;100.00;50168.81;4969357;28;51050;-68
2021/12/12 07:21:13;;;;;;;;;8.00;8.00;;;;;-147.17;100.00;50178.66;4967558;28;51151;-70
2021/12/12 07:23:41;;;;;;;;;8.67;7.67;;;;;-147.17;100.00;50170.78;4955214;28;51073;-68
2021/12/12 07:26:09;;;;;;;;;9.00;8.00;;;;;-147.17;100.00;50198.34;4965956;28;51164;-68
2021/12/12 07:28:37;;;;;;;;;11.25;8.50;;;;;-147.17;100.00;50131.41;4969039;28;51501;-67
2021/12/12 07:31:07;;;;;;;;;10.67;9.33;;;;;-147.17;100.00;50155.03;4968327;28;51146;-68
2021/12/12 07:33:34;;;;;;;;;11.00;11.00;;;;;-147.17;100.00;50137.31;4966320;28;51249;-69
2021/12/12 07:36:05;;;;;;;;;9.50;9.25;;;;;-147.17;100.00;50153.06;4961556;28;51776;-67
2021/12/12 07:38:32;;;;;;;;;7.75;7.75;;;;;-147.17;100.00;50149.13;4967585;28;51246;-67
2021/12/12 07:40:59;;;;;;;;;8.00;8.00;;;;;-147.17;100.00;50145.19;4961104;28;51221;-68
2021/12/12 07:43:28;;;;;;;;;9.67;8.33;;;;;-147.17;100.00;50147.16;4962503;28;51101;-68
2021/12/12 07:45:54;;;;;;;;;11.00;8.33;;;;;-147.17;100.00;50182.59;4962487;28;53218;-68
2021/12/12 07:48:20;;;;;;;;;8.75;7.75;;;;;-147.17;100.00;50133.38;4965853;28;51281;-68
2021/12/12 07:50:46;;;;;;;;;10.00;9.67;;;;;-147.17;100.00;50147.16;4971614;28;51116;-68
2021/12/12 07:53:12;;;;;;;;;8.00;8.00;;;;;-147.17;100.00;50174.72;4965929;28;51011;-68
2021/12/12 07:55:39;;;;;;;;;9.33;8.67;;;;;-147.17;100.00;50174.72;4961243;28;51825;-68
2021/12/12 07:58:12;;;;;;;;;6.50;6.50;;;;;-147.17;100.00;50174.72;4969656;28;51525;-68
2021/12/12 08:00:40;;;;;;;;;10.67;9.00;;;;;-147.17;100.00;50127.47;4964420;28;51108;-68
2021/12/12 08:03:06;;;;;;;;;7.33;6.67;;;;;-147.17;100.00;50170.78;4963473;28;51207;-68
2021/12/12 08:05:34;;;;;;;;;8.00;8.00;;;;;-147.17;100.00;50176.69;4958334;28;51073;-68
2021/12/12 08:08:05;;;;;;;;;11.25;9.25;;;;;-147.17;100.00;50174.72;4963537;28;51156;-68
2021/12/12 08:10:32;;;;;;;;;7.33;6.67;;;;;-147.17;100.00;50127.47;4970312;28;51036;-68
2021/12/12 08:12:58;;;;;;;;;10.00;9.67;;;;;-147.17;100.00;50160.94;4967081;28;51081;-68
2021/12/12 08:15:26;;;;;;;;;10.00;8.67;;;;;-147.17;100.00;50166.84;4972557;28;51729;-68
2021/12/12 08:17:52;;;;;;;;;7.33;7.33;;;;;-147.17;100.00;50119.59;4973459;28;51018;-68
2021/12/12 08:20:18;;;;;;;;;10.67;9.00;;;;;-147.17;100.00;50139.28;4968042;28;51202;-69
2021/12/12 08:22:47;;;;;;;;;4.00;3.33;;;;;-147.17;100.00;50160.94;4973761;28;50987;-68
2021/12/12 08:25:14;;;;;;;;;9.75;8.75;;;;;-147.17;100.00;50157.00;4970967;28;51309;-68
2021/12/12 08:27:41;;;;;;;;;10.25;9.25;;;;;-147.17;100.00;50155.03;4970878;28;51055;-68
2021/12/12 08:30:09;;;;;;;;;10.67;9.33;;;;;-147.17;100.00;50115.66;4977803;28;51433;-69
2021/12/12 08:32:35;;;;;;;;;9.00;8.00;;;;;-147.17;100.00;50143.22;4964726;28;51429;-68
2021/12/12 08:35:00;;;;;;;;;9.00;8.67;;;;;-147.17;100.00;50149.13;4961390;28;51217;-69
2021/12/12 08:37:27;;;;;;;;;8.00;6.67;;;;;-147.17;100.00;50174.72;4973939;28;51071;-67
2021/12/12 08:39:54;;;;;;;;;9.00;6.50;;;;;-147.17;100.00;50145.19;4975123;28;51960;-67
2021/12/12 08:42:20;;;;;;;;;9.00;8.33;;;;;-147.17;100.00;50182.59;4975532;28;51029;-67
2021/12/12 08:44:45;;;;;;;;;9.00;7.67;;;;;-147.17;100.00;50168.81;4975158;28;52483;-67
2021/12/12 08:47:12;;;;;;;;;8.75;8.75;;;;;-147.17;100.00;50149.13;4971757;28;51225;-67
2021/12/12 08:49:41;;;;;;;;;8.67;8.67;;;;;-147.17;100.00;50178.66;4962353;28;51113;-68
2021/12/12 08:52:23;;;;;;;;;9.00;6.00;;;;;-147.17;100.00;50176.69;4956447;28;51074;-70
2021/12/12 08:54:50;;;;;;;;;8.00;7.00;;;;;-147.17;100.00;50133.38;4969757;28;53626;-69
2021/12/12 08:57:31;;;;;;;;;10.00;8.33;;;;;-147.17;100.00;50174.72;4967771;28;51186;-69
2021/12/12 08:59:56;;;;;;;;;8.00;8.00;;;;;-147.17;100.00;50160.94;4967196;28;51218;-69
2021/12/12 09:02:22;;;;;;;;;10.33;9.00;;;;;-147.17;100.00;50155.03;4959548;28;51281;-68
2021/12/12 09:05:10;;;;;;;;;9.33;9.00;;;;;-147.17;100.00;50170.78;4971448;28;51164;-67
2021/12/12 09:07:40;;;;;;;;;9.50;9.00;;;;;-147.17;100.00;50145.19;4971799;28;51463;-68
2021/12/12 09:10:09;;;;;;;;;8.00;7.33;;;;;-147.17;100.00;50170.78;4974355;28;51089;-67
2021/12/12 09:12:42;;;;;;;;;9.00;9.00;;;;;-147.17;100.00;50162.91;4975412;28;51131;-67
2021/12/12 09:15:25;;;;;;;;;9.33;8.33;;;;;-147.17;100.00;50178.66;4956217;28;51720;-68
2021/12/12 09:17:56;;;;;;;;;9.33;8.33;;;;;-147.17;100.00;50137.31;4972301;28;51077;-68
2021/12/12 09:20:46;;;;;;;;;10.67;10.00;;;;;-147.17;100.00;50155.03;4972185;28;51010;-68
2021/12/12 09:23:23;;;;;;;;;11.00;11.00;;;;;-147.17;100.00;50137.31;4966235;28;51315;-68
2021/12/12 09:25:57;;;;;;;;;10.00;10.00;;;;;-147.17;100.00;50155.03;4966462;28;51215;-67
2021/12/12 09:28:38;;;;;;;;;8.67;7.00;;;;;-147.17;100.00;50184.56;4967328;28;51093;-67
2021/12/12 09:31:32;;;;;;;;;12.00;11.00;;;;;-147.17;100.00;50147.16;4974303;28;51129;-66
2021/12/12 09:34:04;;;;;;;;;17.00;13.00;;;;;-147.17;100.00;50143.22;4970905;28;51139;-67
2021/12/12 09:36:41;;;;;;;;;14.25;14.00;;;;;-147.17;100.00;50172.75;4959987;28;51217;-67
2021/12/12 09:39:17;;;;;;;;;10.00;9.33;;;;;-147.17;100.00;50174.72;4970079;28;51370;-67
2021/12/12 09:41:54;;;;;;;;;10.00;9.00;;;;;-147.17;100.00;50162.91;4971688;28;50880;-68
2021/12/12 09:44:57;;;;;;;;;12.00;11.00;;;;;-147.17;100.00;50180.63;4974476;28;50916;-67
2021/12/12 09:47:59;;;;;;;;;8.33;8.33;;;;;-147.17;100.00;50153.06;4973557;28;51885;-66
2021/12/12 09:53:41;;;;;;;;;10.67;10.00;;;;;-147.17;100.00;50129.44;4970531;28;51145;-66
2021/12/12 09:56:14;;;;;;;;;11.00;11.00;;;;;-147.17;100.00;50190.47;4962328;28;51970;-67
2021/12/12 09:58:40;;;;;;;;;12.00;10.00;;;;;-147.17;100.00;50127.47;4957688;28;52833;-67
2021/12/12 10:01:19;;;;;;;;;12.00;11.00;;;;;-147.17;100.00;50162.91;4968244;28;51016;-67
2021/12/12 10:03:47;;;;;;;;;12.67;11.67;;;;;-147.17;100.00;50135.34;4967748;28;51234;-67
2021/12/12 10:06:16;;;;;;;;;10.00;10.00;;;;;-147.17;100.00;50107.78;4959036;28;51273;-66
2021/12/12 10:09:07;;;;;;;;;15.75;12.75;;;;;-147.17;100.00;50125.50;4969772;28;52993;-65
2021/12/12 10:11:36;;;;;;;;;12.00;10.33;;;;;-147.17;100.00;50123.53;4964075;28;52202;-63
2021/12/12 10:14:13;;;;;;;;;13.67;13.00;;;;;-147.17;100.00;50127.47;4971570;28;51023;-62
2021/12/12 10:16:54;;;;;;;;;12.00;11.00;;;;;-147.17;100.00;50115.66;4973117;28;51202;-63
2021/12/12 10:19:38;;;;;;;;;13.33;13.00;;;;;-147.17;100.00;50131.41;4973404;28;52306;-65
2021/12/12 10:22:09;;;;;;;;;13.00;13.00;;;;;-147.17;100.00;50117.63;4972782;28;51281;-67
2021/12/12 10:24:43;;;;;;;;;14.00;13.00;;;;;-147.17;100.00;50145.19;4968749;28;51033;-69
2021/12/12 10:27:24;;;;;;;;;13.33;12.33;;;;;-147.17;100.00;50135.34;4971392;28;51248;-71
2021/12/12 10:29:52;;;;;;;;;12.67;12.67;;;;;-147.17;100.00;50135.34;4969210;28;51151;-69
2021/12/12 10:32:25;;;;;;;;;13.33;11.67;;;;;-147.17;100.00;50151.09;4973336;28;51041;-65
2021/12/12 10:35:13;;;;;;;;;14.67;14.00;;;;;-147.17;100.00;50162.91;4969535;28;51215;-63
2021/12/12 10:37:49;;;;;;;;;13.33;13.33;;;;;-147.17;100.00;50139.28;4970532;28;51082;-64
2021/12/12 10:40:22;;;;;;;;;15.33;14.67;;;;;-147.17;100.00;50117.63;4971803;28;52009;-64
2021/12/12 10:42:52;;;;;;;;;17.67;15.00;;;;;-147.17;100.00;50117.63;4978886;28;50940;-62
2021/12/12 10:45:28;;;;;;;;;16.50;14.75;;;;;-147.17;100.00;50109.75;4972496;28;51329;-61
2021/12/12 10:48:00;;;;;;;;;12.33;11.33;;;;;-147.17;100.00;50170.78;4958231;28;51302;-59
2021/12/12 10:50:50;;;;;;;;;17.00;16.00;;;;;-147.17;100.00;50139.28;4967604;28;52086;-60
2021/12/12 10:53:37;;;;;;;;;16.25;16.00;;;;;-147.17;100.00;50162.91;4970855;28;51247;-60
2021/12/12 10:56:33;;;;;;;;;8.00;6.50;;;;;-147.17;100.00;50170.78;4970674;28;51090;-60
2021/12/12 10:59:01;;;;;;;;;19.50;17.75;;;;;-147.17;100.00;50174.72;4963713;28;51348;-60
2021/12/12 11:01:43;;;;;;;;;16.00;15.67;;;;;-147.17;100.00;50192.44;4961760;28;51683;-61
2021/12/12 11:04:17;;;;;;;;;15.00;15.00;;;;;-147.17;100.00;50194.41;4981822;28;51345;-60
2021/12/12 11:06:51;;;;;;;;;15.00;13.00;;;;;-147.17;100.00;50198.34;4976974;28;51161;-60
2021/12/12 11:09:34;;;;;;;;;16.33;16.33;;;;;-147.17;100.00;50237.72;4970926;28;51376;-59
2021/12/12 11:12:26;;;;;;;;;19.50;16.75;;;;;-147.17;100.00;50225.91;4971534;28;52711;-58
2021/12/12 11:15:14;;;;;;;;;15.00;14.67;;;;;-147.17;100.00;50220.00;4935391;28;51055;-59
2021/12/12 11:17:55;;;;;;;;;15.00;14.00;;;;;-147.17;100.00;50214.09;4968593;28;51129;-59
2021/12/12 11:21:01;;;;;;;;;14.67;14.00;;;;;-147.17;100.00;50204.25;4970443;28;51149;-59
2021/12/12 11:24:05;;;;;;;;;14.00;12.67;;;;;-147.17;100.00;50186.53;4968754;28;53686;-59
2021/12/12 11:26:40;;;;;;;;;16.00;14.33;;;;;-147.17;100.00;50225.91;4918998;28;51345;-59
2021/12/12 11:29:32;;;;;;;;;14.67;14.67;;;;;-147.17;100.00;50186.53;4911415;28;51237;-61
2021/12/12 11:32:05;;;;;;;;;12.33;11.33;;;;;-147.17;100.00;50214.09;4958913;28;51809;-60
2021/12/12 11:34:31;;;;;;;;;11.00;11.00;;;;;-147.17;100.00;50210.16;4947991;28;51698;-60
2021/12/12 11:37:18;;;;;;;;;15.00;14.67;;;;;-147.17;100.00;50216.06;4965653;28;51004;-60
2021/12/12 11:39:50;;;;;;;;;16.00;14.33;;;;;-147.17;100.00;50190.47;4970818;28;50966;-61
2021/12/12 11:42:32;;;;;;;;;15.33;15.33;;;;;-147.17;100.00;50186.53;4965111;28;52772;-59